sensor_id;sensor_type;location;lat;lon;timestamp;P1;durP1;ratioP1;P2;durP2;ratioP2
19560;SDS011;9927;47.792;10.616;2023-09-30T03:01:50;21.33;;;11.32;;
19560;SDS011;9927;47.792;10.616;2023-09-30T03:04:18;22.83;;;11.93;;
19560;SDS011;9927;47.792;10.616;2023-09-30T03:06:46;20.95;;;11.35;;
19560;SDS011;9927;47.792;10.616;2023-09-30T03:09:15;21.27;;;11.77;;
19560;SDS011;9927;47.792;10.616;2023-09-30T03:11:42;21.75;;;11.77;;
19560;SDS011;9927;47.792;10.616;2023-09-30T03:14:10;22.30;;;11.88;;
19560;SDS011;9927;47.792;10.616;2023-09-30T03:16:38;17.73;;;10.32;;
19560;SDS011;9927;47.792;10.616;2023-09-30T03:19:08;22.67;;;11.10;;
19560;SDS011;9927;47.792;10.616;2023-09-30T03:21:35;22.05;;;11.02;;
19560;SDS011;9927;47.792;10.616;2023-09-30T03:24:03;20.73;;;11.57;;
19560;SDS011;9927;47.792;10.616;2023-09-30T03:26:31;21.55;;;11.80;;
19560;SDS011;9927;47.792;10.616;2023-09-30T03:28:58;22.20;;;11.75;;
19560;SDS011;9927;47.792;10.616;2023-09-30T03:31:25;24.95;;;12.70;;
19560;SDS011;9927;47.792;10.616;2023-09-30T03:33:53;23.45;;;11.82;;
19560;SDS011;9927;47.792;10.616;2023-09-30T03:36:21;21.38;;;11.55;;
19560;SDS011;9927;47.792;10.616;2023-09-30T03:38:51;21.17;;;11.73;;
19560;SDS011;9927;47.792;10.616;2023-09-30T03:41:25;22.27;;;11.80;;
19560;SDS011;9927;47.792;10.616;2023-09-30T03:43:53;22.08;;;11.80;;
19560;SDS011;9927;47.792;10.616;2023-09-30T03:46:20;19.35;;;11.05;;
19560;SDS011;9927;47.792;10.616;2023-09-30T03:48:48;23.70;;;12.73;;
19560;SDS011;9927;47.792;10.616;2023-09-30T03:51:15;21.23;;;11.52;;
19560;SDS011;9927;47.792;10.616;2023-09-30T03:53:43;23.33;;;12.27;;
19560;SDS011;9927;47.792;10.616;2023-09-30T03:56:11;19.73;;;10.93;;
19560;SDS011;9927;47.792;10.616;2023-09-30T03:58:40;19.90;;;11.30;;
19560;SDS011;9927;47.792;10.616;2023-09-30T04:01:08;22.20;;;11.38;;
19560;SDS011;9927;47.792;10.616;2023-09-30T04:03:43;21.17;;;11.30;;
19560;SDS011;9927;47.792;10.616;2023-09-30T04:06:11;23.38;;;11.68;;
19560;SDS011;9927;47.792;10.616;2023-09-30T04:08:38;24.52;;;12.77;;
19560;SDS011;9927;47.792;10.616;2023-09-30T04:11:06;21.88;;;12.20;;
19560;SDS011;9927;47.792;10.616;2023-09-30T04:13:33;26.55;;;13.57;;
19560;SDS011;9927;47.792;10.616;2023-09-30T04:16:00;23.67;;;11.70;;
19560;SDS011;9927;47.792;10.616;2023-09-30T04:18:27;23.13;;;11.45;;
19560;SDS011;9927;47.792;10.616;2023-09-30T04:20:55;21.58;;;11.60;;
19560;SDS011;9927;47.792;10.616;2023-09-30T04:23:22;22.27;;;11.15;;
19560;SDS011;9927;47.792;10.616;2023-09-30T04:25:49;23.05;;;11.48;;
19560;SDS011;9927;47.792;10.616;2023-09-30T04:28:17;22.65;;;11.77;;
19560;SDS011;9927;47.792;10.616;2023-09-30T04:30:47;26.10;;;11.70;;
19560;SDS011;9927;47.792;10.616;2023-09-30T04:33:16;22.77;;;11.00;;
19560;SDS011;9927;47.792;10.616;2023-09-30T04:35:47;21.45;;;10.70;;
19560;SDS011;9927;47.792;10.616;2023-09-30T04:38:14;20.70;;;11.13;;
19560;SDS011;9927;47.792;10.616;2023-09-30T04:40:41;20.42;;;10.65;;
19560;SDS011;9927;47.792;10.616;2023-09-30T04:43:11;21.83;;;11.23;;
19560;SDS011;9927;47.792;10.616;2023-09-30T04:45:38;18.05;;;9.90;;
19560;SDS011;9927;47.792;10.616;2023-09-30T04:48:06;18.88;;;10.07;;
19560;SDS011;9927;47.792;10.616;2023-09-30T04:50:33;21.65;;;11.43;;
19560;SDS011;9927;47.792;10.616;2023-09-30T04:53:01;19.38;;;9.85;;
19560;SDS011;9927;47.792;10.616;2023-09-30T04:55:29;17.88;;;9.73;;
19560;SDS011;9927;47.792;10.616;2023-09-30T04:57:56;19.30;;;9.70;;
19560;SDS011;9927;47.792;10.616;2023-09-30T05:00:23;18.80;;;9.18;;
19560;SDS011;9927;47.792;10.616;2023-09-30T05:02:55;15.40;;;8.50;;
19560;SDS011;9927;47.792;10.616;2023-09-30T05:05:23;19.35;;;9.27;;
19560;SDS011;9927;47.792;10.616;2023-09-30T05:07:50;17.73;;;8.68;;
19560;SDS011;9927;47.792;10.616;2023-09-30T05:10:17;19.25;;;9.35;;
19560;SDS011;9927;47.792;10.616;2023-09-30T05:12:45;19.30;;;9.18;;
19560;SDS011;9927;47.792;10.616;2023-09-30T05:15:14;17.25;;;8.65;;
19560;SDS011;9927;47.792;10.616;2023-09-30T05:17:44;17.48;;;9.23;;
19560;SDS011;9927;47.792;10.616;2023-09-30T05:20:12;20.25;;;9.75;;
19560;SDS011;9927;47.792;10.616;2023-09-30T05:22:40;18.48;;;9.02;;
19560;SDS011;9927;47.792;10.616;2023-09-30T05:25:09;16.80;;;8.75;;
19560;SDS011;9927;47.792;10.616;2023-09-30T05:27:37;16.92;;;8.68;;
19560;SDS011;9927;47.792;10.616;2023-09-30T05:30:05;18.35;;;8.93;;
19560;SDS011;9927;47.792;10.616;2023-09-30T05:32:33;19.75;;;9.55;;
19560;SDS011;9927;47.792;10.616;2023-09-30T05:35:01;16.35;;;9.10;;
19560;SDS011;9927;47.792;10.616;2023-09-30T05:37:32;20.58;;;9.68;;
19560;SDS011;9927;47.792;10.616;2023-09-30T05:39:59;17.52;;;9.00;;
19560;SDS011;9927;47.792;10.616;2023-09-30T05:42:27;16.95;;;8.30;;
19560;SDS011;9927;47.792;10.616;2023-09-30T05:44:54;15.95;;;8.68;;
19560;SDS011;9927;47.792;10.616;2023-09-30T05:47:21;17.75;;;9.25;;
19560;SDS011;9927;47.792;10.616;2023-09-30T05:49:49;17.17;;;8.45;;
19560;SDS011;9927;47.792;10.616;2023-09-30T05:52:16;16.67;;;8.65;;
19560;SDS011;9927;47.792;10.616;2023-09-30T05:54:43;18.02;;;9.15;;
19560;SDS011;9927;47.792;10.616;2023-09-30T05:57:10;18.42;;;9.30;;
19560;SDS011;9927;47.792;10.616;2023-09-30T05:59:38;19.15;;;9.65;;
19560;SDS011;9927;47.792;10.616;2023-09-30T06:02:05;16.15;;;8.68;;
19560;SDS011;9927;47.792;10.616;2023-09-30T06:04:32;19.27;;;9.73;;
19560;SDS011;9927;47.792;10.616;2023-09-30T06:07:00;16.23;;;8.60;;
19560;SDS011;9927;47.792;10.616;2023-09-30T06:09:27;17.50;;;8.77;;
19560;SDS011;9927;47.792;10.616;2023-09-30T06:11:58;17.13;;;8.25;;
19560;SDS011;9927;47.792;10.616;2023-09-30T06:14:26;15.20;;;8.13;;
19560;SDS011;9927;47.792;10.616;2023-09-30T06:16:54;18.05;;;8.50;;
19560;SDS011;9927;47.792;10.616;2023-09-30T06:19:22;18.88;;;8.98;;
19560;SDS011;9927;47.792;10.616;2023-09-30T06:21:50;16.00;;;8.30;;
19560;SDS011;9927;47.792;10.616;2023-09-30T06:24:17;16.85;;;8.45;;
19560;SDS011;9927;47.792;10.616;2023-09-30T06:26:47;14.20;;;8.27;;
19560;SDS011;9927;47.792;10.616;2023-09-30T06:29:18;13.05;;;7.15;;
19560;SDS011;9927;47.792;10.616;2023-09-30T06:31:46;19.13;;;8.85;;
19560;SDS011;9927;47.792;10.616;2023-09-30T06:34:13;16.30;;;8.00;;
19560;SDS011;9927;47.792;10.616;2023-09-30T06:36:40;16.67;;;7.55;;
19560;SDS011;9927;47.792;10.616;2023-09-30T06:39:08;14.00;;;7.60;;
19560;SDS011;9927;47.792;10.616;2023-09-30T06:41:35;15.18;;;7.90;;
19560;SDS011;9927;47.792;10.616;2023-09-30T06:44:03;15.60;;;7.93;;
19560;SDS011;9927;47.792;10.616;2023-09-30T06:46:31;15.80;;;8.85;;
19560;SDS011;9927;47.792;10.616;2023-09-30T06:48:58;15.07;;;7.55;;
19560;SDS011;9927;47.792;10.616;2023-09-30T06:51:26;14.63;;;7.45;;
19560;SDS011;9927;47.792;10.616;2023-09-30T06:53:53;14.57;;;7.57;;
19560;SDS011;9927;47.792;10.616;2023-09-30T06:56:20;16.27;;;8.40;;
19560;SDS011;9927;47.792;10.616;2023-09-30T06:58:48;13.90;;;7.18;;
19560;SDS011;9927;47.792;10.616;2023-09-30T07:01:15;15.52;;;7.60;;
19560;SDS011;9927;47.792;10.616;2023-09-30T07:03:45;16.35;;;8.40;;
19560;SDS011;9927;47.792;10.616;2023-09-30T07:06:21;16.20;;;7.65;;
19560;SDS011;9927;47.792;10.616;2023-09-30T07:08:49;14.80;;;7.82;;
19560;SDS011;9927;47.792;10.616;2023-09-30T07:11:16;14.60;;;7.93;;
19560;SDS011;9927;47.792;10.616;2023-09-30T07:13:43;15.43;;;7.97;;
19560;SDS011;9927;47.792;10.616;2023-09-30T07:16:11;14.82;;;6.75;;
19560;SDS011;9927;47.792;10.616;2023-09-30T07:18:38;15.50;;;7.40;;
19560;SDS011;9927;47.792;10.616;2023-09-30T07:21:05;12.25;;;6.32;;
19560;SDS011;9927;47.792;10.616;2023-09-30T07:23:32;14.20;;;7.05;;
19560;SDS011;9927;47.792;10.616;2023-09-30T07:26:00;11.05;;;7.05;;
19560;SDS011;9927;47.792;10.616;2023-09-30T07:28:27;13.38;;;6.75;;
19560;SDS011;9927;47.792;10.616;2023-09-30T07:30:55;14.40;;;7.53;;
19560;SDS011;9927;47.792;10.616;2023-09-30T07:33:22;12.02;;;6.88;;
19560;SDS011;9927;47.792;10.616;2023-09-30T07:35:50;12.27;;;6.55;;
19560;SDS011;9927;47.792;10.616;2023-09-30T07:38:17;13.30;;;7.22;;
19560;SDS011;9927;47.792;10.616;2023-09-30T07:40:44;15.88;;;7.63;;
19560;SDS011;9927;47.792;10.616;2023-09-30T07:43:11;11.77;;;6.60;;
19560;SDS011;9927;47.792;10.616;2023-09-30T07:45:39;12.98;;;6.63;;
19560;SDS011;9927;47.792;10.616;2023-09-30T07:48:07;13.50;;;7.00;;
19560;SDS011;9927;47.792;10.616;2023-09-30T07:50:36;11.23;;;6.30;;
19560;SDS011;9927;47.792;10.616;2023-09-30T07:53:04;14.73;;;7.10;;
19560;SDS011;9927;47.792;10.616;2023-09-30T07:55:32;10.25;;;5.90;;
19560;SDS011;9927;47.792;10.616;2023-09-30T07:58:00;9.90;;;6.15;;
19560;SDS011;9927;47.792;10.616;2023-09-30T08:00:27;12.13;;;6.45;;
19560;SDS011;9927;47.792;10.616;2023-09-30T08:02:55;9.82;;;5.97;;
19560;SDS011;9927;47.792;10.616;2023-09-30T08:05:22;11.57;;;6.85;;
19560;SDS011;9927;47.792;10.616;2023-09-30T08:07:49;13.90;;;6.90;;
19560;SDS011;9927;47.792;10.616;2023-09-30T08:10:16;12.52;;;6.80;;
19560;SDS011;9927;47.792;10.616;2023-09-30T08:12:44;12.38;;;6.68;;
19560;SDS011;9927;47.792;10.616;2023-09-30T08:15:15;12.63;;;6.55;;
19560;SDS011;9927;47.792;10.616;2023-09-30T08:17:43;15.40;;;7.80;;
19560;SDS011;9927;47.792;10.616;2023-09-30T08:20:10;12.85;;;6.97;;
19560;SDS011;9927;47.792;10.616;2023-09-30T08:22:38;13.77;;;7.65;;
19560;SDS011;9927;47.792;10.616;2023-09-30T08:25:06;12.43;;;6.82;;
19560;SDS011;9927;47.792;10.616;2023-09-30T08:27:35;12.65;;;7.10;;
19560;SDS011;9927;47.792;10.616;2023-09-30T08:30:04;12.00;;;6.82;;
19560;SDS011;9927;47.792;10.616;2023-09-30T08:32:33;14.35;;;7.50;;
19560;SDS011;9927;47.792;10.616;2023-09-30T08:35:02;13.90;;;7.45;;
19560;SDS011;9927;47.792;10.616;2023-09-30T08:37:31;14.88;;;7.97;;
19560;SDS011;9927;47.792;10.616;2023-09-30T08:39:58;16.27;;;8.18;;
19560;SDS011;9927;47.792;10.616;2023-09-30T08:42:26;16.90;;;8.65;;
19560;SDS011;9927;47.792;10.616;2023-09-30T08:45:00;16.73;;;8.98;;
19560;SDS011;9927;47.792;10.616;2023-09-30T08:47:27;20.50;;;9.82;;
19560;SDS011;9927;47.792;10.616;2023-09-30T08:49:56;25.23;;;11.98;;
19560;SDS011;9927;47.792;10.616;2023-09-30T08:52:33;22.60;;;11.68;;
19560;SDS011;9927;47.792;10.616;2023-09-30T08:55:09;21.27;;;11.02;;
19560;SDS011;9927;47.792;10.616;2023-09-30T08:57:38;19.27;;;9.95;;
19560;SDS011;9927;47.792;10.616;2023-09-30T09:00:10;24.33;;;11.85;;
19560;SDS011;9927;47.792;10.616;2023-09-30T09:02:41;18.63;;;9.85;;
19560;SDS011;9927;47.792;10.616;2023-09-30T09:05:09;23.08;;;11.38;;
19560;SDS011;9927;47.792;10.616;2023-09-30T09:07:37;21.98;;;10.80;;
19560;SDS011;9927;47.792;10.616;2023-09-30T09:10:06;22.30;;;10.98;;
19560;SDS011;9927;47.792;10.616;2023-09-30T09:12:36;24.63;;;11.38;;
19560;SDS011;9927;47.792;10.616;2023-09-30T09:15:05;24.63;;;11.82;;
19560;SDS011;9927;47.792;10.616;2023-09-30T09:17:41;25.48;;;12.25;;
19560;SDS011;9927;47.792;10.616;2023-09-30T09:20:10;20.42;;;10.55;;
19560;SDS011;9927;47.792;10.616;2023-09-30T09:22:41;22.25;;;11.30;;
19560;SDS011;9927;47.792;10.616;2023-09-30T09:25:10;22.63;;;12.00;;
19560;SDS011;9927;47.792;10.616;2023-09-30T09:27:37;25.35;;;11.88;;
19560;SDS011;9927;47.792;10.616;2023-09-30T09:33:04;22.20;;;10.93;;
19560;SDS011;9927;47.792;10.616;2023-09-30T09:35:33;21.13;;;10.60;;
19560;SDS011;9927;47.792;10.616;2023-09-30T09:38:02;22.92;;;10.82;;
19560;SDS011;9927;47.792;10.616;2023-09-30T09:40:34;23.00;;;10.65;;
19560;SDS011;9927;47.792;10.616;2023-09-30T09:43:04;20.45;;;10.07;;
19560;SDS011;9927;47.792;10.616;2023-09-30T09:45:33;24.40;;;11.88;;
19560;SDS011;9927;47.792;10.616;2023-09-30T09:48:03;20.75;;;10.10;;
19560;SDS011;9927;47.792;10.616;2023-09-30T09:50:32;25.95;;;11.90;;
19560;SDS011;9927;47.792;10.616;2023-09-30T09:52:59;22.40;;;10.90;;
19560;SDS011;9927;47.792;10.616;2023-09-30T09:55:27;23.65;;;11.95;;
19560;SDS011;9927;47.792;10.616;2023-09-30T09:57:54;24.23;;;12.32;;
19560;SDS011;9927;47.792;10.616;2023-09-30T10:00:25;24.10;;;11.73;;
19560;SDS011;9927;47.792;10.616;2023-09-30T10:02:53;23.63;;;11.32;;
19560;SDS011;9927;47.792;10.616;2023-09-30T10:05:20;22.23;;;11.00;;
19560;SDS011;9927;47.792;10.616;2023-09-30T10:07:56;25.55;;;12.43;;
19560;SDS011;9927;47.792;10.616;2023-09-30T10:10:28;25.08;;;12.55;;
19560;SDS011;9927;47.792;10.616;2023-09-30T10:12:57;25.30;;;12.23;;
19560;SDS011;9927;47.792;10.616;2023-09-30T10:18:01;24.25;;;12.30;;
19560;SDS011;9927;47.792;10.616;2023-09-30T10:20:32;23.25;;;11.32;;
19560;SDS011;9927;47.792;10.616;2023-09-30T10:23:17;23.45;;;11.82;;
19560;SDS011;9927;47.792;10.616;2023-09-30T10:25:45;23.75;;;11.90;;
19560;SDS011;9927;47.792;10.616;2023-09-30T10:28:59;23.23;;;11.07;;
19560;SDS011;9927;47.792;10.616;2023-09-30T10:31:14;26.75;;;12.27;;
19560;SDS011;9927;47.792;10.616;2023-09-30T10:38:57;20.80;;;10.88;;
19560;SDS011;9927;47.792;10.616;2023-09-30T10:46:54;23.70;;;11.98;;
19560;SDS011;9927;47.792;10.616;2023-09-30T10:51:53;23.23;;;11.32;;
19560;SDS011;9927;47.792;10.616;2023-09-30T10:54:22;20.73;;;10.75;;
19560;SDS011;9927;47.792;10.616;2023-09-30T10:56:58;19.80;;;10.00;;
19560;SDS011;9927;47.792;10.616;2023-09-30T10:59:26;21.55;;;11.25;;
19560;SDS011;9927;47.792;10.616;2023-09-30T11:01:57;23.27;;;11.63;;
19560;SDS011;9927;47.792;10.616;2023-09-30T11:04:25;23.73;;;11.13;;
19560;SDS011;9927;47.792;10.616;2023-09-30T11:06:55;18.98;;;9.98;;
19560;SDS011;9927;47.792;10.616;2023-09-30T11:09:24;19.95;;;10.27;;
19560;SDS011;9927;47.792;10.616;2023-09-30T11:11:53;25.10;;;11.10;;
19560;SDS011;9927;47.792;10.616;2023-09-30T11:16:53;20.38;;;10.50;;
19560;SDS011;9927;47.792;10.616;2023-09-30T11:19:22;19.95;;;10.68;;
19560;SDS011;9927;47.792;10.616;2023-09-30T11:21:54;22.58;;;10.30;;
19560;SDS011;9927;47.792;10.616;2023-09-30T11:24:22;24.38;;;10.93;;
19560;SDS011;9927;47.792;10.616;2023-09-30T11:26:52;20.23;;;10.13;;
19560;SDS011;9927;47.792;10.616;2023-09-30T11:29:20;18.20;;;9.80;;
19560;SDS011;9927;47.792;10.616;2023-09-30T11:31:48;20.25;;;10.57;;
19560;SDS011;9927;47.792;10.616;2023-09-30T11:34:18;19.60;;;9.80;;
19560;SDS011;9927;47.792;10.616;2023-09-30T11:36:50;16.17;;;9.48;;
19560;SDS011;9927;47.792;10.616;2023-09-30T11:39:30;19.17;;;9.65;;
19560;SDS011;9927;47.792;10.616;2023-09-30T11:41:58;23.42;;;11.57;;
19560;SDS011;9927;47.792;10.616;2023-09-30T11:44:25;21.02;;;10.60;;
19560;SDS011;9927;47.792;10.616;2023-09-30T11:47:01;18.85;;;10.02;;
19560;SDS011;9927;47.792;10.616;2023-09-30T11:49:35;25.17;;;11.07;;
19560;SDS011;9927;47.792;10.616;2023-09-30T11:52:07;20.63;;;10.05;;
19560;SDS011;9927;47.792;10.616;2023-09-30T11:57:11;17.02;;;9.63;;
19560;SDS011;9927;47.792;10.616;2023-09-30T11:59:44;19.98;;;9.98;;
19560;SDS011;9927;47.792;10.616;2023-09-30T12:02:12;18.85;;;9.77;;
19560;SDS011;9927;47.792;10.616;2023-09-30T12:04:44;20.10;;;10.77;;
19560;SDS011;9927;47.792;10.616;2023-09-30T12:07:14;19.50;;;10.07;;
19560;SDS011;9927;47.792;10.616;2023-09-30T12:09:42;20.63;;;10.50;;
19560;SDS011;9927;47.792;10.616;2023-09-30T12:12:10;21.73;;;10.82;;
19560;SDS011;9927;47.792;10.616;2023-09-30T12:14:41;22.25;;;9.75;;
19560;SDS011;9927;47.792;10.616;2023-09-30T12:17:08;20.63;;;10.50;;
19560;SDS011;9927;47.792;10.616;2023-09-30T12:19:39;20.23;;;10.25;;
19560;SDS011;9927;47.792;10.616;2023-09-30T12:22:07;23.13;;;10.38;;
19560;SDS011;9927;47.792;10.616;2023-09-30T12:24:34;20.38;;;10.98;;
19560;SDS011;9927;47.792;10.616;2023-09-30T12:27:02;22.73;;;11.63;;
19560;SDS011;9927;47.792;10.616;2023-09-30T12:29:29;21.33;;;11.43;;
19560;SDS011;9927;47.792;10.616;2023-09-30T12:31:56;21.17;;;10.52;;
19560;SDS011;9927;47.792;10.616;2023-09-30T12:34:24;20.02;;;10.38;;
19560;SDS011;9927;47.792;10.616;2023-09-30T12:36:53;19.38;;;10.38;;
19560;SDS011;9927;47.792;10.616;2023-09-30T12:39:21;20.15;;;10.55;;
19560;SDS011;9927;47.792;10.616;2023-09-30T12:41:52;21.08;;;10.80;;
19560;SDS011;9927;47.792;10.616;2023-09-30T12:44:20;20.60;;;10.35;;
19560;SDS011;9927;47.792;10.616;2023-09-30T12:46:47;19.45;;;10.45;;
19560;SDS011;9927;47.792;10.616;2023-09-30T12:49:15;21.63;;;10.52;;
19560;SDS011;9927;47.792;10.616;2023-09-30T12:51:42;18.88;;;10.07;;
19560;SDS011;9927;47.792;10.616;2023-09-30T12:54:09;20.58;;;9.68;;
19560;SDS011;9927;47.792;10.616;2023-09-30T12:56:38;18.83;;;9.75;;
19560;SDS011;9927;47.792;10.616;2023-09-30T12:59:05;19.00;;;10.40;;
19560;SDS011;9927;47.792;10.616;2023-09-30T13:01:33;19.95;;;10.68;;
19560;SDS011;9927;47.792;10.616;2023-09-30T13:04:02;24.75;;;11.60;;
19560;SDS011;9927;47.792;10.616;2023-09-30T13:06:30;20.30;;;10.80;;
19560;SDS011;9927;47.792;10.616;2023-09-30T13:08:59;18.80;;;10.00;;
19560;SDS011;9927;47.792;10.616;2023-09-30T13:11:27;21.67;;;10.48;;
19560;SDS011;9927;47.792;10.616;2023-09-30T13:13:54;22.10;;;11.05;;
19560;SDS011;9927;47.792;10.616;2023-09-30T13:16:22;21.40;;;10.52;;
19560;SDS011;9927;47.792;10.616;2023-09-30T13:18:49;23.08;;;10.70;;
19560;SDS011;9927;47.792;10.616;2023-09-30T13:21:19;18.55;;;9.70;;
19560;SDS011;9927;47.792;10.616;2023-09-30T13:23:47;20.73;;;10.65;;
19560;SDS011;9927;47.792;10.616;2023-09-30T13:26:14;22.67;;;10.27;;
19560;SDS011;9927;47.792;10.616;2023-09-30T13:28:41;19.33;;;10.15;;
19560;SDS011;9927;47.792;10.616;2023-09-30T13:31:08;19.95;;;9.60;;
19560;SDS011;9927;47.792;10.616;2023-09-30T13:33:36;20.17;;;10.15;;
19560;SDS011;9927;47.792;10.616;2023-09-30T13:36:03;19.42;;;9.43;;
19560;SDS011;9927;47.792;10.616;2023-09-30T13:38:31;20.30;;;9.93;;
19560;SDS011;9927;47.792;10.616;2023-09-30T13:40:59;21.80;;;10.85;;
19560;SDS011;9927;47.792;10.616;2023-09-30T13:43:28;18.27;;;10.38;;
19560;SDS011;9927;47.792;10.616;2023-09-30T13:45:55;18.98;;;10.02;;
19560;SDS011;9927;47.792;10.616;2023-09-30T13:48:23;20.75;;;9.93;;
19560;SDS011;9927;47.792;10.616;2023-09-30T13:50:51;20.05;;;10.35;;
19560;SDS011;9927;47.792;10.616;2023-09-30T13:53:19;20.42;;;10.20;;
19560;SDS011;9927;47.792;10.616;2023-09-30T13:55:46;20.25;;;10.18;;
19560;SDS011;9927;47.792;10.616;2023-09-30T13:58:14;20.08;;;11.02;;
19560;SDS011;9927;47.792;10.616;2023-09-30T14:00:46;20.13;;;10.75;;
19560;SDS011;9927;47.792;10.616;2023-09-30T14:03:14;21.45;;;10.93;;
19560;SDS011;9927;47.792;10.616;2023-09-30T14:05:42;22.25;;;11.43;;
19560;SDS011;9927;47.792;10.616;2023-09-30T14:08:11;24.38;;;11.30;;
19560;SDS011;9927;47.792;10.616;2023-09-30T14:10:38;17.83;;;10.40;;
19560;SDS011;9927;47.792;10.616;2023-09-30T14:13:05;22.10;;;10.73;;
19560;SDS011;9927;47.792;10.616;2023-09-30T14:15:33;22.95;;;11.32;;
19560;SDS011;9927;47.792;10.616;2023-09-30T14:18:00;19.45;;;11.05;;
19560;SDS011;9927;47.792;10.616;2023-09-30T14:20:29;21.95;;;10.88;;
19560;SDS011;9927;47.792;10.616;2023-09-30T14:22:56;18.70;;;9.90;;
19560;SDS011;9927;47.792;10.616;2023-09-30T14:25:24;19.60;;;10.23;;
19560;SDS011;9927;47.792;10.616;2023-09-30T14:27:51;22.45;;;10.38;;
19560;SDS011;9927;47.792;10.616;2023-09-30T14:30:19;18.00;;;9.00;;
19560;SDS011;9927;47.792;10.616;2023-09-30T14:32:47;19.88;;;10.15;;
19560;SDS011;9927;47.792;10.616;2023-09-30T14:35:14;20.42;;;10.50;;
19560;SDS011;9927;47.792;10.616;2023-09-30T14:37:42;18.13;;;10.38;;
19560;SDS011;9927;47.792;10.616;2023-09-30T14:40:09;21.42;;;10.82;;
19560;SDS011;9927;47.792;10.616;2023-09-30T14:42:37;19.38;;;10.45;;
19560;SDS011;9927;47.792;10.616;2023-09-30T14:45:05;21.02;;;10.68;;
19560;SDS011;9927;47.792;10.616;2023-09-30T14:47:33;19.88;;;10.80;;
19560;SDS011;9927;47.792;10.616;2023-09-30T14:50:00;19.55;;;10.15;;
19560;SDS011;9927;47.792;10.616;2023-09-30T14:52:28;22.33;;;10.93;;
19560;SDS011;9927;47.792;10.616;2023-09-30T14:54:56;20.92;;;11.10;;
19560;SDS011;9927;47.792;10.616;2023-09-30T14:57:24;21.05;;;10.63;;
19560;SDS011;9927;47.792;10.616;2023-09-30T14:59:52;20.90;;;10.57;;
19560;SDS011;9927;47.792;10.616;2023-09-30T15:02:19;21.35;;;11.00;;
19560;SDS011;9927;47.792;10.616;2023-09-30T15:04:47;20.13;;;10.38;;
19560;SDS011;9927;47.792;10.616;2023-09-30T15:07:15;21.65;;;11.13;;
19560;SDS011;9927;47.792;10.616;2023-09-30T15:09:42;19.73;;;10.52;;
19560;SDS011;9927;47.792;10.616;2023-09-30T15:12:09;22.08;;;11.27;;
19560;SDS011;9927;47.792;10.616;2023-09-30T15:14:37;22.33;;;11.85;;
19560;SDS011;9927;47.792;10.616;2023-09-30T15:17:04;21.75;;;11.25;;
19560;SDS011;9927;47.792;10.616;2023-09-30T15:19:31;21.40;;;10.85;;
19560;SDS011;9927;47.792;10.616;2023-09-30T15:21:59;18.50;;;9.63;;
19560;SDS011;9927;47.792;10.616;2023-09-30T15:24:27;19.92;;;10.43;;
19560;SDS011;9927;47.792;10.616;2023-09-30T15:26:54;21.42;;;10.43;;
19560;SDS011;9927;47.792;10.616;2023-09-30T15:29:22;18.70;;;10.20;;
19560;SDS011;9927;47.792;10.616;2023-09-30T15:31:49;18.88;;;10.50;;
19560;SDS011;9927;47.792;10.616;2023-09-30T15:34:17;18.42;;;10.38;;
19560;SDS011;9927;47.792;10.616;2023-09-30T15:36:44;19.10;;;10.25;;
19560;SDS011;9927;47.792;10.616;2023-09-30T15:39:11;18.58;;;9.95;;
19560;SDS011;9927;47.792;10.616;2023-09-30T15:41:38;18.58;;;9.98;;
19560;SDS011;9927;47.792;10.616;2023-09-30T15:44:06;21.63;;;11.10;;
19560;SDS011;9927;47.792;10.616;2023-09-30T15:46:33;19.23;;;9.90;;
19560;SDS011;9927;47.792;10.616;2023-09-30T15:49:00;22.38;;;10.70;;
19560;SDS011;9927;47.792;10.616;2023-09-30T15:51:28;19.75;;;10.32;;
19560;SDS011;9927;47.792;10.616;2023-09-30T15:53:55;20.35;;;9.98;;
19560;SDS011;9927;47.792;10.616;2023-09-30T15:56:24;20.85;;;10.73;;
19560;SDS011;9927;47.792;10.616;2023-09-30T15:58:51;19.10;;;10.07;;
19560;SDS011;9927;47.792;10.616;2023-09-30T16:01:19;21.15;;;10.43;;
19560;SDS011;9927;47.792;10.616;2023-09-30T16:03:46;19.55;;;10.63;;
19560;SDS011;9927;47.792;10.616;2023-09-30T16:06:13;20.15;;;10.77;;
19560;SDS011;9927;47.792;10.616;2023-09-30T16:08:42;24.17;;;11.85;;
19560;SDS011;9927;47.792;10.616;2023-09-30T16:11:09;19.70;;;10.15;;
19560;SDS011;9927;47.792;10.616;2023-09-30T16:13:37;21.10;;;11.05;;
19560;SDS011;9927;47.792;10.616;2023-09-30T16:16:04;20.40;;;10.73;;
19560;SDS011;9927;47.792;10.616;2023-09-30T16:18:32;19.58;;;10.30;;
19560;SDS011;9927;47.792;10.616;2023-09-30T16:20:59;18.30;;;9.95;;
19560;SDS011;9927;47.792;10.616;2023-09-30T16:23:27;20.58;;;10.20;;
19560;SDS011;9927;47.792;10.616;2023-09-30T16:25:54;17.00;;;10.07;;
19560;SDS011;9927;47.792;10.616;2023-09-30T16:28:21;19.05;;;9.90;;
19560;SDS011;9927;47.792;10.616;2023-09-30T16:30:49;18.60;;;9.80;;
19560;SDS011;9927;47.792;10.616;2023-09-30T16:33:16;18.80;;;10.13;;
19560;SDS011;9927;47.792;10.616;2023-09-30T16:35:51;20.58;;;10.80;;
19560;SDS011;9927;47.792;10.616;2023-09-30T16:38:20;31.95;;;13.27;;
19560;SDS011;9927;47.792;10.616;2023-09-30T16:40:48;29.52;;;14.48;;
19560;SDS011;9927;47.792;10.616;2023-09-30T16:43:15;46.05;;;16.05;;
19560;SDS011;9927;47.792;10.616;2023-09-30T16:45:46;32.05;;;14.35;;
19560;SDS011;9927;47.792;10.616;2023-09-30T16:48:15;23.50;;;10.60;;
19560;SDS011;9927;47.792;10.616;2023-09-30T16:50:43;25.58;;;11.35;;
19560;SDS011;9927;47.792;10.616;2023-09-30T16:53:11;19.65;;;10.00;;
19560;SDS011;9927;47.792;10.616;2023-09-30T16:55:38;19.23;;;10.73;;
19560;SDS011;9927;47.792;10.616;2023-09-30T16:58:05;20.35;;;9.85;;
19560;SDS011;9927;47.792;10.616;2023-09-30T17:00:34;16.98;;;10.13;;
19560;SDS011;9927;47.792;10.616;2023-09-30T17:03:01;18.60;;;10.90;;
19560;SDS011;9927;47.792;10.616;2023-09-30T17:05:35;22.75;;;11.82;;
19560;SDS011;9927;47.792;10.616;2023-09-30T17:08:04;20.67;;;11.27;;
19560;SDS011;9927;47.792;10.616;2023-09-30T17:10:32;21.55;;;13.10;;
19560;SDS011;9927;47.792;10.616;2023-09-30T17:13:00;22.42;;;12.57;;
19560;SDS011;9927;47.792;10.616;2023-09-30T17:15:28;20.73;;;11.38;;
19560;SDS011;9927;47.792;10.616;2023-09-30T17:17:55;21.00;;;11.20;;
19560;SDS011;9927;47.792;10.616;2023-09-30T17:20:23;21.10;;;11.02;;
19560;SDS011;9927;47.792;10.616;2023-09-30T17:22:51;19.92;;;10.85;;
19560;SDS011;9927;47.792;10.616;2023-09-30T17:25:18;18.30;;;10.10;;
19560;SDS011;9927;47.792;10.616;2023-09-30T17:27:46;19.85;;;11.48;;
19560;SDS011;9927;47.792;10.616;2023-09-30T17:30:13;21.35;;;12.13;;
19560;SDS011;9927;47.792;10.616;2023-09-30T17:32:54;19.13;;;9.68;;
19560;SDS011;9927;47.792;10.616;2023-09-30T17:35:21;21.63;;;10.27;;
19560;SDS011;9927;47.792;10.616;2023-09-30T17:37:49;17.83;;;10.48;;
19560;SDS011;9927;47.792;10.616;2023-09-30T17:40:16;24.77;;;10.77;;
19560;SDS011;9927;47.792;10.616;2023-09-30T17:42:44;17.13;;;9.30;;
19560;SDS011;9927;47.792;10.616;2023-09-30T17:45:11;21.67;;;10.00;;
19560;SDS011;9927;47.792;10.616;2023-09-30T17:47:39;17.63;;;9.55;;
19560;SDS011;9927;47.792;10.616;2023-09-30T17:50:06;16.35;;;10.00;;
19560;SDS011;9927;47.792;10.616;2023-09-30T17:52:34;15.75;;;9.55;;
19560;SDS011;9927;47.792;10.616;2023-09-30T17:55:02;18.52;;;10.05;;
19560;SDS011;9927;47.792;10.616;2023-09-30T17:57:30;16.50;;;9.90;;